Time;durP1;ratioP1;P1;durP2;ratioP2;P2;SDS_P1;SDS_P2;PMS_P1;PMS_P2;Temp;Humidity;BMP_temperature;BMP_pressure;BME280_temperature;BME280_humidity;BME280_pressure;Samples;Min_cycle;Max_cycle;Signal;HPM_P1;HPM_P2
2021/07/11 05:26:36;;;;;;;12.41;6.55;;;;;;;24.67;54.20;100002.73;370417;142;879553;-60
2021/07/11 05:27:38;;;;;;;12.81;6.75;;;;;;;24.64;52.68;100007.28;363631;145;858927;-60
2021/07/11 05:28:40;;;;;;;13.47;6.88;;;;;;;24.75;53.19;100000.45;363977;146;857817;-60
2021/07/11 05:29:42;;;;;;;19.06;6.23;;;;;;;24.86;54.20;100011.18;364215;145;858844;-59
2021/07/11 05:30:44;;;;;;;10.49;6.32;;;;;;;24.96;53.00;100008.78;363152;145;857565;-60
2021/07/11 05:31:46;;;;;;;8.41;5.67;;;;;;;25.08;52.40;100007.94;365259;146;858147;-60
2021/07/11 05:32:48;;;;;;;12.96;5.47;;;;;;;25.22;51.63;100014.93;365702;147;865715;-60
2021/07/11 05:33:50;;;;;;;8.46;4.65;;;;;;;25.36;51.23;100015.78;365524;146;865513;-60
2021/07/11 05:34:51;;;;;;;9.59;5.76;;;;;;;25.49;48.96;100010.52;364051;145;866748;-60
2021/07/11 05:35:53;;;;;;;8.31;5.00;;;;;;;25.65;49.05;100008.48;365031;147;865774;-60
2021/07/11 05:36:57;;;;;;;8.03;5.56;;;;;;;25.80;48.76;100017.17;362441;146;864860;-60
2021/07/11 05:37:58;;;;;;;10.49;5.30;;;;;;;;;;364445;145;858638;-61
2021/07/11 05:39:00;;;;;;;8.41;5.67;;;;;;;;;;366580;147;857987;-58
2021/07/11 05:40:02;;;;;;;9.38;5.12;;;;;;;;;;365371;146;857360;-60
2021/07/11 05:41:03;;;;;;;8.96;4.63;;;;;;;;;;366486;144;865066;-60
2021/07/11 05:42:05;;;;;;;8.30;5.08;;;;;;;;;;365576;146;866639;-59
2021/07/11 05:43:07;;;;;;;9.71;5.15;;;;;;;;;;363063;145;858998;-60
2021/07/11 05:44:08;;;;;;;9.26;4.82;;;;;;;;;;363999;147;857524;-61
2021/07/11 05:45:10;;;;;;;10.95;4.51;;;;;;;;;;363062;145;859262;-60
2021/07/11 05:46:14;;;;;;;11.90;4.78;;;;;;;;;;363904;145;859058;-61
2021/07/11 05:47:15;;;;;;;10.11;5.24;;;;;;;;;;366806;145;857978;-61
2021/07/11 05:48:17;;;;;;;12.19;5.37;;;;;;;;;;364568;145;857571;-61
2021/07/11 05:49:18;;;;;;;8.59;4.78;;;;;;;;;;363144;144;857564;-61
2021/07/11 05:50:22;;;;;;;7.44;4.72;;;;;;;;;;364059;146;858198;-61
2021/07/11 05:51:23;;;;;;;11.19;4.84;;;;;;;;;;364378;145;858895;-61
2021/07/11 05:52:26;;;;;;;8.66;4.99;;;;;;;;;;362112;144;857520;-61
2021/07/11 05:53:27;;;;;;;9.22;5.53;;;;;;;;;;363072;145;860551;-61
2021/07/11 05:54:29;;;;;;;10.03;5.26;;;;;;;;;;364301;145;865016;-61
2021/07/11 05:55:31;;;;;;;7.91;4.58;;;;;;;;;;362750;146;857451;-61
2021/07/11 05:56:33;;;;;;;9.46;5.20;;;;;;;;;;361084;144;857451;-61
2021/07/11 05:57:35;;;;;;;10.60;4.99;;;;;;;;;;360140;149;857301;-61
2021/07/11 05:58:36;;;;;;;11.83;5.42;;;;;;;;;;361426;146;859225;-61
2021/07/11 05:59:38;;;;;;;10.27;4.77;;;;;;;;;;364790;144;866773;-61
2021/07/11 06:00:42;;;;;;;8.77;5.21;;;;;;;;;;363691;148;858254;-61
2021/07/11 06:01:43;;;;;;;6.73;4.77;;;;;;;;;;365705;146;859246;-61
2021/07/11 06:02:45;;;;;;;8.68;5.01;;;;;;;;;;357184;147;857552;-60
2021/07/11 06:03:47;;;;;;;7.43;4.61;;;;;;;;;;353903;151;859005;-60
2021/07/11 06:04:48;;;;;;;11.71;5.26;;;;;;;;;;353214;151;858256;-60
2021/07/11 06:05:50;;;;;;;13.94;5.04;;;;;;;;;;357022;150;858030;-60
2021/07/11 06:06:53;;;;;;;7.84;5.41;;;;;;;;;;355839;147;859641;-61
2021/07/11 06:07:55;;;;;;;7.01;4.99;;;;;;;;;;353653;148;857343;-61
2021/07/11 06:08:56;;;;;;;8.95;5.69;;;;;;;;;;357234;150;866554;-61
2021/07/11 06:09:59;;;;;;;7.77;5.05;;;;;;;;;;355590;148;857404;-60
2021/07/11 06:11:00;;;;;;;8.89;5.55;;;;;;;;;;353857;148;857408;-60
2021/07/11 06:12:02;;;;;;;15.55;6.02;;;;;;;;;;350496;150;858231;-61
2021/07/11 06:13:04;;;;;;;9.41;5.24;;;;;;;;;;353849;150;857549;-61
2021/07/11 06:14:05;;;;;;;11.84;5.45;;;;;;;;;;355174;148;864999;-61
2021/07/11 06:15:08;;;;;;;8.88;5.18;;;;;;;;;;353574;150;857741;-60
2021/07/11 06:16:10;;;;;;;9.54;4.99;;;;;;;;;;349674;149;865137;-60
2021/07/11 06:17:11;;;;;;;12.51;4.70;;;;;;;;;;352869;150;859342;-61
2021/07/11 06:18:13;;;;;;;9.85;4.40;;;;;;;;;;354629;151;857446;-61
2021/07/11 06:19:15;;;;;;;8.15;4.95;;;;;;;;;;355455;151;863401;-61
2021/07/11 06:20:18;;;;;;;9.79;5.33;;;;;;;;;;355952;149;857681;-61
2021/07/11 06:21:20;;;;;;;10.02;5.01;;;;;;;;;;352597;148;857674;-61
2021/07/11 06:22:21;;;;;;;9.94;5.28;;;;;;;;;;357556;148;857568;-61
2021/07/11 06:23:23;;;;;;;7.57;5.19;;;;;;;;;;356770;148;857537;-61
2021/07/11 06:24:24;;;;;;;12.03;5.41;;;;;;;;;;354095;148;857610;-61
2021/07/11 06:25:26;;;;;;;10.58;5.84;;;;;;;;;;350294;151;859502;-60
2021/07/11 06:26:28;;;;;;;9.76;5.43;;;;;;;;;;351329;149;857483;-61
2021/07/11 06:27:29;;;;;;;9.61;5.56;;;;;;;;;;352923;150;859678;-61
2021/07/11 06:28:31;;;;;;;13.29;5.47;;;;;;;;;;355584;151;857419;-61
2021/07/11 06:29:32;;;;;;;11.59;5.36;;;;;;;;;;355799;151;857327;-61
2021/07/11 06:30:36;;;;;;;8.84;5.29;;;;;;;;;;350744;148;857411;-61
2021/07/11 06:31:37;;;;;;;10.61;5.34;;;;;;;;;;351674;150;858735;-61
2021/07/11 06:32:39;;;;;;;7.89;4.89;;;;;;;;;;351817;151;857436;-61
2021/07/11 06:33:41;;;;;;;9.33;5.21;;;;;;;;;;357144;149;858076;-61
2021/07/11 06:34:42;;;;;;;11.10;5.85;;;;;;;;;;350509;150;865083;-62
2021/07/11 06:35:44;;;;;;;9.37;5.29;;;;;;;;;;358030;148;857466;-61
2021/07/11 06:36:47;;;;;;;8.08;4.78;;;;;;;;;;356373;151;857518;-61
2021/07/11 06:37:49;;;;;;;9.68;4.47;;;;;;;;;;353444;149;860279;-61
2021/07/11 06:38:50;;;;;;;8.60;4.70;;;;;;;;;;352251;148;857476;-62
2021/07/11 06:39:52;;;;;;;12.12;4.91;;;;;;;;;;350256;148;857449;-61
2021/07/11 06:40:54;;;;;;;9.61;5.43;;;;;;;;;;348177;152;857560;-62
2021/07/11 06:41:56;;;;;;;8.56;4.27;;;;;;;;;;356629;147;857501;-61
2021/07/11 06:42:57;;;;;;;5.60;4.73;;;;;;;;;;354847;148;859035;-61
2021/07/11 06:43:59;;;;;;;6.53;4.49;;;;;;;;;;355415;150;859565;-63
2021/07/11 06:45:01;;;;;;;5.73;4.45;;;;;;;;;;356432;147;859178;-60
2021/07/11 06:46:03;;;;;;;6.09;4.31;;;;;;;;;;359446;147;858302;-61
2021/07/11 06:47:07;;;;;;;9.64;4.69;;;;;;;;;;359080;148;860386;-61
2021/07/11 06:48:08;;;;;;;9.56;4.11;;;;;;;;;;355553;148;865057;-61
2021/07/11 06:49:10;;;;;;;7.09;3.74;;;;;;;;;;356086;148;857465;-61
2021/07/11 06:50:12;;;;;;;6.35;3.75;;;;;;;;;;353076;152;857475;-60
2021/07/11 06:51:14;;;;;;;3.95;3.31;;;;;;;;;;352917;152;859368;-61
2021/07/11 06:52:15;;;;;;;9.22;3.74;;;;;;;;;;349975;152;859231;-61
2021/07/11 06:53:17;;;;;;;8.70;3.84;;;;;;;;;;358063;148;857555;-61
2021/07/11 06:54:19;;;;;;;6.19;3.91;;;;;;;;;;350448;150;857597;-61
2021/07/11 06:55:21;;;;;;;3.97;3.43;;;;;;;;;;355989;149;857719;-61
2021/07/11 06:56:24;;;;;;;5.26;3.53;;;;;;;;;;357008;149;857582;-60
2021/07/11 06:57:25;;;;;;;6.19;3.73;;;;;;;;;;357390;150;866185;-61
2021/07/11 06:58:27;;;;;;;8.04;3.71;;;;;;;;;;356844;150;857352;-60
2021/07/11 06:59:29;;;;;;;5.06;3.56;;;;;;;;;;353814;151;859150;-60
2021/07/11 07:00:31;;;;;;;5.90;3.87;;;;;;;;;;353796;150;859928;-61
2021/07/11 07:01:33;;;;;;;9.92;3.99;;;;;;;;;;352826;151;866513;-60
2021/07/11 07:02:35;;;;;;;8.28;3.76;;;;;;;;;;351730;150;866879;-61
2021/07/11 07:03:36;;;;;;;5.99;3.66;;;;;;;;;;349368;152;865636;-61
2021/07/11 07:04:38;;;;;;;3.95;3.56;;;;;;;;;;358106;148;858837;-61
2021/07/11 07:05:39;;;;;;;8.52;3.53;;;;;;;;;;358751;147;858368;-61
2021/07/11 07:06:43;;;;;;;8.10;3.26;;;;;;;;;;352397;148;857397;-61
2021/07/11 07:07:44;;;;;;;5.61;3.34;;;;;;;;;;357664;148;857387;-62
2021/07/11 07:08:46;;;;;;;5.69;3.34;;;;;;;;;;356688;151;857322;-61
2021/07/11 07:09:47;;;;;;;4.89;3.57;;;;;;;;;;356530;149;857421;-61
2021/07/11 07:10:50;;;;;;;7.00;3.45;;;;;;;;;;355660;148;859206;-62
2021/07/11 07:11:51;;;;;;;3.01;2.70;;;;;;;;;;356979;149;859262;-62
2021/07/11 07:12:53;;;;;;;7.31;2.94;;;;;;;;;;358291;149;865904;-62
2021/07/11 07:13:54;;;;;;;4.68;3.05;;;;;;;;;;355650;148;857535;-61
2021/07/11 07:14:56;;;;;;;4.16;2.89;;;;;;;;;;353460;147;859779;-62
2021/07/11 07:15:57;;;;;;;6.34;3.27;;;;;;;;;;347971;155;857399;-62
2021/07/11 07:16:59;;;;;;;5.42;3.04;;;;;;;;;;350912;150;858306;-62
2021/07/11 07:18:01;;;;;;;3.65;2.81;;;;;;;;;;353230;149;857464;-62
2021/07/11 07:19:02;;;;;;;6.14;3.40;;;;;;;;;;353857;151;857411;-61
2021/07/11 07:20:06;;;;;;;6.31;3.35;;;;;;;;;;351249;152;859184;-62
2021/07/11 07:21:07;;;;;;;4.14;3.32;;;;;;;;;;356201;148;858359;-62
2021/07/11 07:22:09;;;;;;;6.35;3.19;;;;;;;;;;350050;151;858771;-62
2021/07/11 07:23:10;;;;;;;7.17;3.49;;;;;;;;;;352174;151;858036;-60
2021/07/11 07:24:12;;;;;;;6.06;3.00;;;;;;;;;;351233;151;857615;-63
2021/07/11 07:25:14;;;;;;;4.93;3.25;;;;;;;;;;353175;149;857551;-63
2021/07/11 07:26:16;;;;;;;7.20;3.15;;;;;;;;;;355865;148;865496;-60
2021/07/11 07:27:18;;;;;;;5.91;3.16;;;;;;;;;;356214;151;857570;-61
2021/07/11 07:28:19;;;;;;;4.26;2.89;;;;;;;;;;353040;148;857560;-61
2021/07/11 07:29:21;;;;;;;4.74;2.82;;;;;;;;;;359126;148;857554;-61
2021/07/11 07:30:23;;;;;;;7.20;2.92;;;;;;;;;;356393;148;857520;-61
2021/07/11 07:31:25;;;;;;;4.35;3.31;;;;;;;;;;355113;148;857540;-61
2021/07/11 07:32:26;;;;;;;3.03;2.67;;;;;;;;;;351578;150;857405;-61
2021/07/11 07:33:28;;;;;;;3.96;2.94;;;;;;;;;;349996;154;857417;-60
2021/07/11 07:34:30;;;;;;;6.19;3.12;;;;;;;;;;351817;149;857314;-60
2021/07/11 07:35:31;;;;;;;4.02;3.24;;;;;;;;;;354310;150;865732;-60
2021/07/11 07:36:35;;;;;;;3.63;3.15;;;;;;;;;;353757;151;865680;-60
2021/07/11 07:37:36;;;;;;;6.11;2.81;;;;;;;;;;353221;149;857412;-61
2021/07/11 07:38:38;;;;;;;5.75;3.21;;;;;;;;;;354323;149;857564;-61
2021/07/11 07:39:40;;;;;;;7.17;3.43;;;;;;;;;;353011;149;857487;-60
2021/07/11 07:40:42;;;;;;;5.31;2.79;;;;;;;;;;357221;150;866649;-62
2021/07/11 07:41:43;;;;;;;7.16;3.09;;;;;;;;;;355533;149;857523;-60
2021/07/11 07:42:45;;;;;;;4.60;2.94;;;;;;;;;;357890;148;858997;-60
2021/07/11 07:43:47;;;;;;;5.17;3.34;;;;;;;;;;355795;151;857521;-60
2021/07/11 07:44:48;;;;;;;6.52;3.00;;;;;;;;;;356558;149;866217;-60
2021/07/11 07:45:50;;;;;;;4.96;3.41;;;;;;;;;;357099;148;857955;-60
2021/07/11 07:46:53;;;;;;;5.97;2.88;;;;;;;;;;356944;148;864843;-61
2021/07/11 07:47:54;;;;;;;4.97;3.23;;;;;;;;;;362987;148;864976;-61
2021/07/11 07:48:56;;;;;;;5.00;2.94;;;;;;;;;;355404;147;857367;-62
2021/07/11 07:49:57;;;;;;;8.06;3.26;;;;;;;;;;354098;148;857453;-61
2021/07/11 07:50:59;;;;;;;5.18;2.99;;;;;;;;;;352755;150;859148;-62
2021/07/11 07:52:01;;;;;;;5.99;2.91;;;;;;;;;;354662;152;857732;-61
2021/07/11 07:53:03;;;;;;;5.56;2.97;;;;;;;;;;353749;149;859491;-61
2021/07/11 07:54:04;;;;;;;7.08;2.98;;;;;;;;;;356165;147;858563;-62
2021/07/11 07:55:06;;;;;;;6.21;3.21;;;;;;;;;;353877;149;857501;-61
2021/07/11 07:56:09;;;;;;;4.51;2.91;;;;;;;;;;355636;149;857402;-61
2021/07/11 07:57:10;;;;;;;5.03;3.16;;;;;;;;;;355827;147;865584;-61
2021/07/11 07:58:12;;;;;;;4.48;2.98;;;;;;;;;;355293;150;857595;-61
2021/07/11 07:59:13;;;;;;;3.59;3.16;;;;;;;;;;350125;151;858008;-61
2021/07/11 08:00:17;;;;;;;7.91;3.34;;;;;;;;;;355711;150;857469;-62
2021/07/11 08:01:18;;;;;;;3.99;3.09;;;;;;;;;;354598;150;857552;-61
2021/07/11 08:02:20;;;;;;;5.66;2.86;;;;;;;;;;356949;150;858819;-62
2021/07/11 08:03:21;;;;;;;4.64;2.76;;;;;;;;;;357227;149;858297;-61
2021/07/11 08:04:23;;;;;;;3.79;2.76;;;;;;;;;;353832;150;858049;-61
2021/07/11 08:05:26;;;;;;;5.39;3.05;;;;;;;;;;352857;150;857545;-62
2021/07/11 08:06:28;;;;;;;4.79;3.14;;;;;;;;;;355909;150;857576;-61
2021/07/11 08:07:30;;;;;;;5.87;3.12;;;;;;;;;;355883;148;858977;-61
2021/07/11 08:08:31;;;;;;;6.44;3.13;;;;;;;;;;352050;150;857427;-62
2021/07/11 08:09:33;;;;;;;4.56;3.19;;;;;;;;;;357452;150;857352;-61
2021/07/11 08:10:37;;;;;;;3.67;2.94;;;;;;;;;;355793;150;857414;-61
2021/07/11 08:11:38;;;;;;;3.85;3.10;;;;;;;;;;355805;148;857459;-62
2021/07/11 08:12:40;;;;;;;8.06;3.17;;;;;;;;;;357428;150;857606;-61
2021/07/11 08:13:41;;;;;;;5.66;2.92;;;;;;;;;;356909;150;858964;-62
2021/07/11 08:14:43;;;;;;;8.77;2.77;;;;;;;;;;356126;150;858735;-62
2021/07/11 08:15:44;;;;;;;4.13;3.04;;;;;;;;;;357459;150;859246;-61
2021/07/11 08:16:46;;;;;;;5.47;3.79;;;;;;;;;;356437;150;857395;-61
2021/07/11 08:17:48;;;;;;;6.62;2.69;;;;;;;;;;355338;150;864837;-61
2021/07/11 08:18:50;;;;;;;7.81;3.16;;;;;;;;;;356849;148;857492;-62
2021/07/11 08:19:51;;;;;;;7.47;3.24;;;;;;;;;;357820;148;861030;-62
2021/07/11 08:20:54;;;;;;;4.86;3.60;;;;;;;;;;355044;151;857482;-62
2021/07/11 08:21:57;;;;;;;4.51;2.77;;;;;;;;;;350707;150;860481;-62
2021/07/11 08:22:59;;;;;;;3.96;3.02;;;;;;;;;;349421;151;857484;-62
2021/07/11 08:24:01;;;;;;;7.79;3.39;;;;;;;;;;355310;149;864912;-62
2021/07/11 08:25:03;;;;;;;5.08;3.49;;;;;;;;;;354268;150;864975;-61
2021/07/11 08:26:05;;;;;;;6.57;3.13;;;;;;;;;;353410;150;864960;-61
2021/07/11 08:27:07;;;;;;;6.89;3.43;;;;;;;;;;354240;151;866007;-61
2021/07/11 08:28:08;;;;;;;7.17;2.77;;;;;;;;;;352973;149;865618;-62
2021/07/11 08:29:10;;;;;;;7.16;2.87;;;;;;;;;;351517;150;857499;-62
2021/07/11 08:30:13;;;;;;;7.21;3.13;;;;;;;;;;352239;151;857522;-62
2021/07/11 08:31:14;;;;;;;4.93;2.68;;;;;;;;;;353163;149;857582;-61
2021/07/11 08:32:16;;;;;;;7.22;3.14;;;;;;;;;;351673;150;858910;-62
2021/07/11 08:33:17;;;;;;;3.40;2.74;;;;;;;;;;354921;149;857571;-62
2021/07/11 08:34:19;;;;;;;4.91;3.24;;;;;;;;;;351084;149;857648;-62
2021/07/11 08:35:20;;;;;;;6.14;3.36;;;;;;;;;;354861;148;857707;-62
2021/07/11 08:36:22;;;;;;;7.45;3.20;;;;;;;;;;357346;148;857458;-62
2021/07/11 08:37:24;;;;;;;4.51;3.00;;;;;;;;;;358255;150;857626;-62
2021/07/11 08:38:25;;;;;;;3.96;3.14;;;;;;;;;;355617;148;857615;-62
2021/07/11 08:39:28;;;;;;;10.04;3.24;;;;;;;;;;359066;147;859273;-62
2021/07/11 08:40:32;;;;;;;7.57;3.54;;;;;;;;;;363170;148;859539;-61
2021/07/11 08:41:35;;;;;;;5.83;3.21;;;;;;;;;;361402;148;868206;-61
2021/07/11 08:42:39;;;;;;;4.81;2.98;;;;;;;;;;355282;148;865471;-62
2021/07/11 08:43:40;;;;;;;3.66;3.26;;;;;;;;;;353729;152;864963;-61
2021/07/11 08:44:42;;;;;;;5.22;3.24;;;;;;;;;;349480;154;857570;-61
2021/07/11 08:45:43;;;;;;;6.24;3.08;;;;;;;;;;355867;150;859217;-61
2021/07/11 08:46:47;;;;;;;6.85;3.46;;;;;;;;;;355010;148;859123;-62
2021/07/11 08:47:49;;;;;;;9.05;4.13;;;;;;;;;;354415;148;857431;-61
2021/07/11 08:48:51;;;;;;;4.76;3.14;;;;;;;;;;353302;150;859033;-61
2021/07/11 08:49:53;;;;;;;8.03;3.54;;;;;;;;;;354156;148;865693;-63
2021/07/11 08:50:57;;;;;;;5.26;3.41;;;;;;;;;;355411;151;857613;-62
2021/07/11 08:51:59;;;;;;;6.91;3.53;;;;;;;;;;355281;151;860827;-61
2021/07/11 08:53:00;;;;;;;5.35;3.57;;;;;;;;;;354360;150;857449;-61
2021/07/11 08:54:02;;;;;;;4.75;3.64;;;;;;;;;;354612;148;857512;-61
2021/07/11 08:55:14;;;;;;;5.78;3.22;;;;;;;;;;354880;150;859306;-62
2021/07/11 08:56:18;;;;;;;4.51;3.52;;;;;;;;;;353947;150;862900;-61
2021/07/11 08:57:20;;;;;;;8.67;3.47;;;;;;;;;;353505;150;859331;-61
2021/07/11 08:58:22;;;;;;;9.69;3.86;;;;;;;;;;354654;150;857616;-62
2021/07/11 08:59:25;;;;;;;6.82;3.92;;;;;;;;;;354692;150;866818;-64
2021/07/11 09:00:29;;;;;;;6.29;3.64;;;;;;;;;;348298;153;859340;-61
2021/07/11 09:01:30;;;;;;;6.08;4.12;;;;;;;;;;357555;147;857476;-61
2021/07/11 09:02:32;;;;;;;10.54;3.93;;;;;;;;;;360710;145;858115;-61
2021/07/11 09:03:33;;;;;;;6.74;4.24;;;;;;;;;;364326;145;857591;-62
2021/07/11 09:04:41;;;;;;;7.51;3.79;;;;;;;;;;364895;145;857463;-61
2021/07/11 09:05:43;;;;;;;7.08;3.42;;;;;;;;;;363676;145;858145;-63
2021/07/11 09:06:48;;;;;;;5.43;3.32;;;;;;;;;;365334;147;857502;-62
2021/07/11 09:07:52;;;;;;;6.54;3.51;;;;;;;;;;363438;145;857430;-63
2021/07/11 09:08:57;;;;;;;8.28;3.56;;;;;;;;;;348542;146;857565;-62
2021/07/11 09:09:59;;;;;;;9.35;3.77;;;;;;;;;;363329;146;858671;-61
2021/07/11 09:11:02;;;;;;;101.91;76.57;;;;;;;;;;361653;145;858446;-60
2021/07/11 09:12:08;;;;;;;38.19;31.19;;;;;;;;;;364412;144;857588;-60
2021/07/11 09:13:11;;;;;;;9.81;4.93;;;;;;;;;;364448;145;858534;-62
2021/07/11 09:14:19;;;;;;;5.62;4.01;;;;;;;;;;364657;145;857605;-60
2021/07/11 09:15:34;;;;;;;5.48;3.37;;;;;;;;;;362519;144;866056;-60
2021/07/11 09:16:44;;;;;;;5.29;4.03;;;;;;;;;;364846;146;860725;-61
2021/07/11 09:17:47;;;;;;;5.04;2.99;;;;;;;;;;362806;146;858565;-59
2021/07/11 09:18:50;;;;;;;5.70;3.24;;;;;;;;;;363595;145;857490;-61
2021/07/11 09:19:53;;;;;;;4.16;3.09;;;;;;;;;;364337;145;857468;-61
2021/07/11 09:20:57;;;;;;;5.81;3.60;;;;;;;;;;365510;145;858092;-61
2021/07/11 09:21:59;;;;;;;4.90;3.75;;;;;;;;;;362631;145;859162;-61
2021/07/11 09:23:02;;;;;;;5.73;3.82;;;;;;;;;;363490;144;857511;-61
2021/07/11 09:24:10;;;;;;;5.59;3.45;;;;;;;;;;363864;145;859250;-61
2021/07/11 09:25:12;;;;;;;4.48;3.56;;;;;;;;;;362764;145;857437;-61
2021/07/11 09:26:16;;;;;;;3.75;3.23;;;;;;;;;;363098;144;858978;-61
2021/07/11 09:27:18;;;;;;;4.65;3.63;;;;;;;;;;364936;144;860352;-61
2021/07/11 09:28:20;;;;;;;4.15;3.43;;;;;;;;;;364615;144;866023;-60
2021/07/11 09:29:25;;;;;;;3.69;3.31;;;;;;;;;;362706;144;860469;-60
2021/07/11 09:30:28;;;;;;;5.27;3.29;;;;;;;;;;364527;145;857569;-60
2021/07/11 09:31:30;;;;;;;3.77;3.27;;;;;;;;;;365738;144;857520;-62
2021/07/11 09:32:33;;;;;;;4.29;3.59;;;;;;;;;;356410;147;858928;-61
2021/07/11 09:33:35;;;;;;;4.17;3.27;;;;;;;;;;358711;147;857703;-60
2021/07/11 09:34:38;;;;;;;4.79;3.36;;;;;;;;;;361901;146;858332;-59
2021/07/11 09:35:40;;;;;;;4.83;3.61;;;;;;;;;;361707;144;858738;-58
2021/07/11 09:36:42;;;;;;;4.92;2.83;;;;;;;;;;362018;144;859652;-59
2021/07/11 09:37:45;;;;;;;4.62;3.11;;;;;;;;;;363621;145;859848;-60
2021/07/11 09:38:48;;;;;;;5.99;3.60;;;;;;;;;;364268;144;857592;-60
2021/07/11 09:39:53;;;;;;;4.19;3.11;;;;;;;;;;363617;145;864845;-60
2021/07/11 09:40:55;;;;;;;5.21;3.59;;;;;;;;;;366308;144;859153;-60
2021/07/11 09:41:57;;;;;;;3.59;3.25;;;;;;;;;;365550;145;859571;-60
2021/07/11 09:42:59;;;;;;;8.68;3.74;;;;;;;;;;362076;144;857444;-60
2021/07/11 09:44:01;;;;;;;7.04;3.57;;;;;;;;;;364953;144;857496;-60
2021/07/11 09:45:04;;;;;;;5.20;3.11;;;;;;;;;;363981;145;864822;-59
2021/07/11 09:46:11;;;;;;;4.53;3.37;;;;;;;;;;362453;145;857523;-60
2021/07/11 09:47:14;;;;;;;3.55;3.13;;;;;;;;;;363180;145;857535;-61
2021/07/11 09:48:16;;;;;;;5.58;3.32;;;;;;;;;;364471;145;858796;-60
2021/07/11 09:49:18;;;;;;;4.58;3.23;;;;;;;;;;363350;145;857626;-59
2021/07/11 09:50:22;;;;;;;5.27;3.33;;;;;;;;;;361268;144;859595;-60
2021/07/11 09:51:27;;;;;;;4.73;3.18;;;;;;;;;;367793;144;857599;-60
2021/07/11 09:52:32;;;;;;;8.21;3.42;;;;;;;;;;363433;144;859484;-60
2021/07/11 09:53:34;;;;;;;5.12;2.93;;;;;;;;;;361585;145;857612;-61
2021/07/11 09:54:35;;;;;;;6.99;3.06;;;;;;;;;;362990;145;857567;-61
2021/07/11 09:55:37;;;;;;;6.34;3.16;;;;;;;;;;366310;145;857936;-60
2021/07/11 09:56:43;;;;;;;4.59;3.17;;;;;;;;;;360971;144;859935;-64
2021/07/11 09:57:45;;;;;;;6.01;3.11;;;;;;;;;;364249;144;859663;-61
2021/07/11 09:58:56;;;;;;;8.97;3.05;;;;;;;;;;363246;144;857615;-65
2021/07/11 10:00:05;;;;;;;7.52;3.54;;;;;;;;;;365794;145;857939;-64
2021/07/11 10:01:09;;;;;;;5.43;3.08;;;;;;;;;;364286;145;857952;-63
2021/07/11 10:02:10;;;;;;;5.97;3.55;;;;;;;;;;364439;144;860096;-64
2021/07/11 10:03:13;;;;;;;6.77;3.33;;;;;;;;;;364963;146;858812;-66
2021/07/11 10:04:15;;;;;;;4.81;3.19;;;;;;;;;;365845;146;857529;-69
2021/07/11 10:05:17;;;;;;;5.44;3.11;;;;;;;;;;363645;145;858650;-62
2021/07/11 10:06:20;;;;;;;4.49;3.42;;;;;;;;;;362892;145;857645;-63
2021/07/11 10:07:22;;;;;;;3.61;2.94;;;;;;;;;;362902;145;857487;-63
2021/07/11 10:08:25;;;;;;;6.05;2.80;;;;;;;;;;363662;146;864079;-64
2021/07/11 10:09:27;;;;;;;6.41;3.08;;;;;;;;;;365046;144;859287;-63
2021/07/11 10:10:29;;;;;;;8.08;3.40;;;;;;;;;;363620;145;857599;-61
2021/07/11 10:11:31;;;;;;;6.15;3.16;;;;;;;;;;362884;144;865290;-61
2021/07/11 10:12:33;;;;;;;3.86;2.76;;;;;;;;;;363711;144;857452;-63
2021/07/11 10:13:34;;;;;;;6.73;3.19;;;;;;;;;;362789;145;863225;-65
2021/07/11 10:14:36;;;;;;;4.77;3.06;;;;;;;;;;364050;145;858123;-66
2021/07/11 10:15:38;;;;;;;3.99;3.12;;;;;;;;;;362601;145;858345;-66
2021/07/11 10:16:41;;;;;;;4.89;3.25;;;;;;;;;;365293;144;860246;-63
2021/07/11 10:17:44;;;;;;;5.34;3.30;;;;;;;;;;364692;144;857568;-63
2021/07/11 10:18:45;;;;;;;6.56;3.09;;;;;;;;;;362172;146;858773;-62
2021/07/11 10:19:47;;;;;;;7.14;3.06;;;;;;;;;;363583;144;859321;-63
2021/07/11 10:20:57;;;;;;;6.35;3.31;;;;;;;;;;362536;145;857462;-63
2021/07/11 10:22:01;;;;;;;4.73;3.06;;;;;;;;;;361968;145;863121;-61
2021/07/11 10:23:02;;;;;;;6.68;3.27;;;;;;;;;;361738;144;857931;-64
2021/07/11 10:24:04;;;;;;;6.49;3.35;;;;;;;;;;364731;144;857644;-63
2021/07/11 10:25:08;;;;;;;5.75;3.47;;;;;;;;;;358850;148;865454;-63
2021/07/11 10:26:12;;;;;;;4.12;3.06;;;;;;;;;;357061;147;858294;-64
2021/07/11 10:27:25;;;;;;;3.30;2.85;;;;;;;;;;363807;144;858068;-62
2021/07/11 10:28:27;;;;;;;5.34;3.25;;;;;;;;;;364346;144;859772;-61
2021/07/11 10:29:28;;;;;;;6.01;3.57;;;;;;;;;;363174;144;858472;-61
2021/07/11 10:30:32;;;;;;;4.08;2.96;;;;;;;;;;363862;144;857674;-63
2021/07/11 10:31:35;;;;;;;4.97;3.33;;;;;;;;;;363295;144;858292;-64
2021/07/11 10:32:37;;;;;;;5.50;2.85;;;;;;;;;;365146;144;857434;-61
2021/07/11 10:33:42;;;;;;;6.69;3.08;;;;;;;;;;356029;148;857568;-62
2021/07/11 10:34:44;;;;;;;3.98;3.06;;;;;;;;;;356075;148;858428;-62
2021/07/11 10:35:50;;;;;;;4.07;2.82;;;;;;;;;;356591;150;860088;-64
2021/07/11 10:36:53;;;;;;;4.55;3.39;;;;;;;;;;351557;150;857563;-61
2021/07/11 10:37:55;;;;;;;8.57;2.93;;;;;;;;;;355685;148;860787;-61
2021/07/11 10:38:57;;;;;;;4.49;3.08;;;;;;;;;;352353;150;865268;-62
2021/07/11 10:40:06;;;;;;;4.27;3.24;;;;;;;;;;354960;148;857485;-63
2021/07/11 10:41:15;;;;;;;3.97;3.03;;;;;;;;;;355098;148;865680;-62
2021/07/11 10:42:18;;;;;;;5.01;3.08;;;;;;;;;;346545;151;858063;-62
2021/07/11 10:43:20;;;;;;;4.83;3.41;;;;;;;;;;354029;148;858228;-62
2021/07/11 10:44:22;;;;;;;5.24;2.85;;;;;;;;;;356081;148;858507;-63
2021/07/11 10:45:24;;;;;;;4.66;3.35;;;;;;;;;;357001;148;864952;-62
2021/07/11 10:46:35;;;;;;;4.98;3.16;;;;;;;;;;354245;149;858821;-63
2021/07/11 10:47:37;;;;;;;5.49;3.60;;;;;;;;;;353808;149;858358;-64
2021/07/11 10:48:39;;;;;;;5.51;3.33;;;;;;;;;;355300;148;857598;-62
2021/07/11 10:49:50;;;;;;;4.89;3.34;;;;;;;;;;355409;148;857932;-63
2021/07/11 10:50:53;;;;;;;4.88;3.52;;;;;;;;;;353448;149;859163;-62
2021/07/11 10:51:56;;;;;;;4.91;3.59;;;;;;;;;;353860;148;858542;-63
2021/07/11 10:52:58;;;;;;;7.54;3.14;;;;;;;;;;355116;150;857556;-63
2021/07/11 10:53:59;;;;;;;4.99;2.80;;;;;;;;;;353173;148;858063;-63
2021/07/11 10:55:01;;;;;;;4.48;3.16;;;;;;;;;;354100;148;857580;-61
2021/07/11 10:56:05;;;;;;;11.82;3.24;;;;;;;;;;349248;151;857541;-61
2021/07/11 10:57:08;;;;;;;5.29;3.16;;;;;;;;;;346600;151;859417;-61
2021/07/11 10:58:10;;;;;;;7.34;3.35;;;;;;;;;;353861;148;857484;-62
2021/07/11 10:59:14;;;;;;;6.52;2.99;;;;;;;;;;353094;148;866574;-61
2021/07/11 11:00:20;;;;;;;5.56;3.09;;;;;;;;;;353900;148;859394;-63
2021/07/11 11:01:26;;;;;;;4.79;3.22;;;;;;;;;;352936;148;857524;-61
2021/07/11 11:02:28;;;;;;;8.01;2.92;;;;;;;;;;353585;148;856757;-62
2021/07/11 11:03:29;;;;;;;7.00;3.44;;;;;;;;;;355709;149;857574;-61
2021/07/11 11:04:31;;;;;;;4.40;2.79;;;;;;;;;;352521;148;858810;-61
2021/07/11 11:05:34;;;;;;;6.10;3.18;;;;;;;;;;354497;149;857850;-61
2021/07/11 11:06:38;;;;;;;5.89;3.31;;;;;;;;;;349798;150;857452;-61
2021/07/11 11:07:48;;;;;;;7.83;3.83;;;;;;;;;;352808;152;857382;-63
2021/07/11 11:08:49;;;;;;;7.13;3.43;;;;;;;;;;352474;151;857579;-61
2021/07/11 11:09:51;;;;;;;5.49;3.77;;;;;;;;;;355146;150;865465;-64
2021/07/11 11:11:03;;;;;;;4.07;3.13;;;;;;;;;;354846;150;857520;-61
2021/07/11 11:12:18;;;;;;;6.13;3.37;;;;;;;;;;353523;151;866582;-61
2021/07/11 11:13:22;;;;;;;3.93;3.09;;;;;;;;;;350276;151;859645;-60
2021/07/11 11:14:26;;;;;;;5.83;3.33;;;;;;;;;;357282;148;857441;-61
2021/07/11 11:15:35;;;;;;;5.34;2.79;;;;;;;;;;349574;151;864935;-61
2021/07/11 11:16:40;;;;;;;4.39;3.16;;;;;;;;;;352626;149;857387;-59
2021/07/11 11:17:41;;;;;;;3.37;3.07;;;;;;;;;;351267;150;857644;-62
2021/07/11 11:18:43;;;;;;;5.01;3.15;;;;;;;;;;351738;149;859912;-62
2021/07/11 11:19:45;;;;;;;6.50;2.90;;;;;;;;;;356616;149;865476;-60
2021/07/11 11:20:50;;;;;;;4.18;3.19;;;;;;;;;;351398;150;867566;-62
2021/07/11 11:21:53;;;;;;;3.62;2.82;;;;;;;;;;349376;151;857958;-61
2021/07/11 11:22:55;;;;;;;7.61;3.18;;;;;;;;;;354004;149;858432;-59
2021/07/11 11:23:57;;;;;;;6.25;2.88;;;;;;;;;;353128;148;858078;-61
2021/07/11 11:24:58;;;;;;;8.32;3.37;;;;;;;;;;350339;150;859415;-63
2021/07/11 11:26:00;;;;;;;6.49;3.07;;;;;;;;;;353195;149;864915;-60
2021/07/11 11:27:02;;;;;;;4.92;3.02;;;;;;;;;;351912;148;857516;-63
2021/07/11 11:28:03;;;;;;;5.29;3.00;;;;;;;;;;351895;148;864651;-63
2021/07/11 11:29:05;;;;;;;5.18;2.89;;;;;;;;;;350893;151;865881;-62
2021/07/11 11:30:09;;;;;;;6.49;2.91;;;;;;;;;;353886;148;858666;-61
2021/07/11 11:31:15;;;;;;;7.72;3.25;;;;;;;;;;350613;150;857478;-61
2021/07/11 11:32:16;;;;;;;4.49;2.94;;;;;;;;;;350876;150;859195;-62